createdAt,value
2023-04-29T00:02:47.699Z,10.5
2023-04-29T00:08:42.662Z,9.7
2023-04-29T00:14:34.730Z,11.4
2023-04-29T00:20:27.102Z,11.8
2023-04-29T00:26:19.233Z,11.2
2023-04-29T00:32:11.931Z,11.3
2023-04-29T00:38:04.441Z,12
2023-04-29T00:43:56.817Z,12.8
2023-04-29T00:49:49.104Z,14.6
2023-04-29T00:55:40.743Z,14.1
2023-04-29T01:01:33.424Z,14.7
2023-04-29T01:07:25.921Z,16.7
2023-04-29T01:13:17.649Z,17.5
2023-04-29T01:19:10.226Z,18.3
2023-04-29T01:25:02.688Z,18
2023-04-29T01:30:56.202Z,18.9
2023-04-29T01:36:47.991Z,18.9
2023-04-29T01:42:40.987Z,18.7
2023-04-29T01:48:33.210Z,16.5
2023-04-29T01:54:24.221Z,16.7
2023-04-29T02:00:17.315Z,15.1
2023-04-29T02:06:09.774Z,13.5
2023-04-29T02:12:01.995Z,12.6
2023-04-29T02:17:54.221Z,12.1
2023-04-29T02:23:45.931Z,13
2023-04-29T02:29:39.167Z,12.1
2023-04-29T02:35:31.660Z,14.4
2023-04-29T02:41:24.864Z,15.2
2023-04-29T02:47:16.779Z,12.4
2023-04-29T02:53:09.614Z,12.8
2023-04-29T02:59:00.439Z,15.2
2023-04-29T03:04:52.139Z,19.6
2023-04-29T03:10:47.405Z,20.2
2023-04-29T03:16:39.127Z,24
2023-04-29T03:22:32.064Z,24.4
2023-04-29T03:28:25.140Z,25.1
2023-04-29T03:34:17.491Z,25.2
2023-04-29T03:40:09.631Z,28.2
2023-04-29T03:46:01.524Z,27.5
2023-04-29T03:51:53.605Z,28
2023-04-29T03:57:49.599Z,30.6
2023-04-29T04:03:42.570Z,30.4
2023-04-29T04:09:34.498Z,32.6
2023-04-29T04:15:27.370Z,33.3
2023-04-29T04:21:19.780Z,32
2023-04-29T04:27:12.592Z,33.2
2023-04-29T04:33:05.110Z,31.7
2023-04-29T04:38:57.344Z,31.7
2023-04-29T04:44:50.155Z,37.7
2023-04-29T04:50:42.328Z,39.1
2023-04-29T04:56:34.333Z,41
2023-04-29T05:02:27.676Z,37.7
2023-04-29T05:08:32.976Z,37.5
2023-04-29T05:14:34.733Z,38.2
2023-04-29T05:20:28.761Z,42.2
2023-04-29T05:26:29.179Z,39.8
2023-04-29T05:32:24.186Z,44.3
2023-04-29T05:38:24.304Z,43.7
2023-04-29T05:44:16.379Z,44.9
2023-04-29T05:50:11.932Z,39
2023-04-29T05:56:04.480Z,32.7
2023-04-29T06:02:02.869Z,33.6
2023-04-29T06:07:56.309Z,32.6
2023-04-29T06:13:50.256Z,35
2023-04-29T06:19:47.398Z,35.3
2023-04-29T06:25:41.548Z,31.1
2023-04-29T06:31:36.630Z,30.8
2023-04-29T06:37:38.400Z,28.5
2023-04-29T06:43:29.173Z,28.8
2023-04-29T06:49:21.749Z,30
2023-04-29T06:55:17.346Z,29.4
2023-04-29T07:01:10.397Z,29.7
2023-04-29T07:07:04.707Z,29.2
2023-04-29T07:13:02.055Z,29.6
2023-04-29T07:18:55.812Z,29.1
2023-04-29T07:24:48.498Z,27.5
2023-04-29T07:30:40.871Z,25.6
2023-04-29T07:36:38.611Z,27.2
2023-04-29T07:42:33.273Z,26.3
2023-04-29T07:48:26.356Z,25.3
2023-04-29T07:54:32.221Z,26.4
2023-04-29T08:00:24.836Z,27.9
2023-04-29T08:06:21.675Z,26.9
2023-04-29T08:12:15.707Z,28.1
2023-04-29T08:18:17.906Z,24.2
2023-04-29T08:24:30.630Z,24.5
2023-04-29T08:30:43.023Z,21.1
2023-04-29T08:36:35.401Z,20.1
2023-04-29T08:42:28.237Z,20.2
2023-04-29T08:48:30.949Z,20.2
2023-04-29T08:54:27.134Z,20.3
2023-04-29T09:00:28.489Z,19.8
2023-04-29T09:06:33.115Z,20.2
2023-04-29T09:12:30.851Z,18.8
2023-04-29T09:18:45.256Z,20.6
2023-04-29T09:25:22.703Z,21.7
2023-04-29T09:31:29.579Z,19
2023-04-29T09:37:25.249Z,20.1
2023-04-29T09:44:09.461Z,21.2
2023-04-29T10:41:34.532Z,22.2
2023-04-29T10:47:25.546Z,20.8
2023-04-29T10:53:58.464Z,19.4
2023-04-29T11:23:58.939Z,27.1
2023-04-29T11:29:50.777Z,29.9
2023-04-29T11:35:45.529Z,30.3
2023-04-29T11:41:40.681Z,29.9
2023-04-29T11:47:34.291Z,29.7
2023-04-29T11:53:26.546Z,33.4
2023-04-29T11:59:17.881Z,33.1
2023-04-29T12:05:11.502Z,34
2023-04-29T12:11:03.468Z,36.3
2023-04-29T12:16:55.372Z,35.7
2023-04-29T12:22:47.093Z,38.9
2023-04-29T12:28:41.616Z,41.8
2023-04-29T12:34:33.656Z,39.8
2023-04-29T12:40:24.874Z,35.3
2023-04-29T12:46:17.972Z,34.9
2023-04-29T12:52:14.484Z,35.4
2023-04-29T12:58:10.061Z,35.9
2023-04-29T13:04:03.634Z,34.2
2023-04-29T13:10:14.319Z,39.8
2023-04-29T13:16:06.237Z,49.1
2023-04-29T13:21:58.055Z,57.9
2023-04-29T13:27:56.154Z,63.9
2023-04-29T13:34:11.882Z,63.7
2023-04-29T13:40:09.792Z,62.1
2023-04-29T13:46:09.392Z,63.1
2023-04-29T13:54:05.428Z,66
2023-04-29T14:07:31.849Z,67.2
2023-04-29T14:13:24.950Z,58.6
2023-04-29T14:19:17.304Z,51.1
2023-04-29T14:25:07.999Z,46.8
2023-04-29T14:31:02.009Z,47.7
2023-04-29T14:36:56.503Z,41.7
2023-04-29T14:42:56.120Z,38.9
2023-04-29T14:48:48.343Z,43.8
2023-04-29T14:54:40.883Z,45.8
2023-04-29T15:00:32.762Z,46
2023-04-29T15:06:26.788Z,44
2023-04-29T15:12:17.596Z,43.3
2023-04-29T15:18:10.196Z,45.5
2023-04-29T15:23:59.595Z,41.6
2023-04-29T15:29:52.352Z,44.8
2023-04-29T15:35:43.442Z,39
2023-04-29T15:41:33.642Z,44.8
2023-04-29T15:47:26.073Z,44
2023-04-29T15:53:16.992Z,39.6
2023-04-29T15:59:09.290Z,34.3
2023-04-29T16:05:01.836Z,38.3
2023-04-29T16:10:54.298Z,39.1
2023-04-29T16:18:26.021Z,43.3
2023-04-29T16:24:16.010Z,40
2023-04-29T16:30:08.925Z,39.4
2023-04-29T16:36:02.354Z,40.7
2023-04-29T16:41:55.991Z,32.6
2023-04-29T16:48:57.264Z,37.8
2023-04-29T16:54:50.395Z,37.3
2023-04-29T17:00:40.636Z,38
2023-04-29T17:06:32.422Z,38.6
2023-04-29T17:12:25.421Z,38.8
2023-04-29T17:18:17.315Z,38.2
2023-04-29T17:24:08.601Z,38.7
2023-04-29T17:30:01.959Z,38.2
2023-04-29T17:35:53.195Z,41.3
2023-04-29T17:41:44.711Z,38.4
2023-04-29T17:47:37.121Z,39.6
2023-04-29T17:53:42.309Z,37.6
2023-04-29T17:59:35.879Z,38.6
2023-04-29T18:05:41.294Z,41.3
2023-04-29T18:11:33.109Z,37.8
2023-04-29T18:17:25.170Z,37.9
2023-04-29T18:23:17.305Z,38.5
2023-04-29T18:29:10.286Z,38
2023-04-29T18:35:02.177Z,41.6
2023-04-29T18:40:52.770Z,38.5
2023-04-29T18:53:09.614Z,40.1
2023-04-29T18:59:02.708Z,41.1
2023-04-29T19:04:54.857Z,40.4
2023-04-29T19:11:06.354Z,38
2023-04-29T19:16:57.748Z,38.5
2023-04-29T19:23:01.711Z,39
2023-04-29T19:28:53.539Z,37.4
2023-04-29T19:34:54.108Z,39.9
2023-04-29T19:40:47.125Z,43.9
2023-04-29T19:46:46.755Z,45.8
2023-04-29T19:52:39.752Z,44.9
2023-04-29T19:58:33.543Z,43.2
2023-04-29T20:04:25.716Z,43
2023-04-29T20:10:17.858Z,42.3
2023-04-29T20:16:10.905Z,45.1
2023-04-29T20:22:07.818Z,45.1
2023-04-29T20:28:03.847Z,44.9
2023-04-29T20:34:38.010Z,44.7
2023-04-29T20:40:28.014Z,47.3
2023-04-29T20:46:40.004Z,45.2
2023-04-29T20:52:30.674Z,45.2
2023-04-29T20:58:23.515Z,45.9
2023-04-29T21:04:15.049Z,45.7
2023-04-29T21:10:08.246Z,43.8
2023-04-29T21:15:59.892Z,47.2
2023-04-29T21:21:52.583Z,46.3
2023-04-29T21:27:45.938Z,46.4
2023-04-29T21:33:39.312Z,50.1
2023-04-29T21:39:31.619Z,47.2
2023-04-29T21:45:24.141Z,46.5
2023-04-29T21:51:16.384Z,46.7
2023-04-29T21:57:06.808Z,47.7
2023-04-29T22:02:59.870Z,45.6
2023-04-29T22:08:52.721Z,48.7
2023-04-29T22:14:44.683Z,49.2
2023-04-29T22:20:37.874Z,49.6
2023-04-29T22:26:29.822Z,48.2
2023-04-29T22:32:22.825Z,46.2
2023-04-29T22:38:14.878Z,46.4
2023-04-29T22:44:07.653Z,48
2023-04-29T22:50:01.537Z,46.7
2023-04-29T22:55:54.881Z,45.6
2023-04-29T23:01:48.243Z,46
2023-04-29T23:07:42.521Z,49.7
2023-04-29T23:13:35.234Z,53.6
2023-04-29T23:19:27.287Z,51.9
2023-04-29T23:25:19.324Z,51
2023-04-29T23:31:11.281Z,47.6
2023-04-29T23:37:03.575Z,49.1
2023-04-29T23:42:55.666Z,49.7
2023-04-29T23:48:47.886Z,48.8
2023-04-29T23:54:44.340Z,47.4
